sensor_id;sensor_type;location;lat;lon;timestamp;P1;durP1;ratioP1;P2;durP2;ratioP2
10645;SDS011;5371;49.782;9.932;2023-04-07T00:00:16;8.53;;;5.30;;
10645;SDS011;5371;49.782;9.932;2023-04-07T00:02:43;7.07;;;5.33;;
10645;SDS011;5371;49.782;9.932;2023-04-07T00:05:11;7.23;;;5.67;;
10645;SDS011;5371;49.782;9.932;2023-04-07T00:07:38;7.37;;;5.87;;
10645;SDS011;5371;49.782;9.932;2023-04-07T00:10:05;7.63;;;6.03;;
10645;SDS011;5371;49.782;9.932;2023-04-07T00:12:33;8.53;;;6.10;;
10645;SDS011;5371;49.782;9.932;2023-04-07T00:15:01;7.60;;;5.80;;
10645;SDS011;5371;49.782;9.932;2023-04-07T00:17:29;7.60;;;6.37;;
10645;SDS011;5371;49.782;9.932;2023-04-07T00:19:55;8.03;;;6.20;;
10645;SDS011;5371;49.782;9.932;2023-04-07T00:22:23;7.30;;;6.10;;
10645;SDS011;5371;49.782;9.932;2023-04-07T00:24:50;9.57;;;6.43;;
10645;SDS011;5371;49.782;9.932;2023-04-07T00:27:17;8.73;;;6.23;;
10645;SDS011;5371;49.782;9.932;2023-04-07T00:29:44;6.97;;;6.27;;
10645;SDS011;5371;49.782;9.932;2023-04-07T00:32:13;9.27;;;6.27;;
10645;SDS011;5371;49.782;9.932;2023-04-07T00:34:40;7.20;;;6.30;;
10645;SDS011;5371;49.782;9.932;2023-04-07T00:37:07;7.30;;;6.33;;
10645;SDS011;5371;49.782;9.932;2023-04-07T00:39:34;8.60;;;6.60;;
10645;SDS011;5371;49.782;9.932;2023-04-07T00:42:02;10.30;;;7.40;;
10645;SDS011;5371;49.782;9.932;2023-04-07T00:44:30;8.40;;;6.73;;
10645;SDS011;5371;49.782;9.932;2023-04-07T00:46:57;9.73;;;6.83;;
10645;SDS011;5371;49.782;9.932;2023-04-07T00:49:26;8.63;;;6.97;;
10645;SDS011;5371;49.782;9.932;2023-04-07T00:51:53;9.63;;;6.77;;
10645;SDS011;5371;49.782;9.932;2023-04-07T00:54:23;10.03;;;6.57;;
10645;SDS011;5371;49.782;9.932;2023-04-07T00:56:51;9.03;;;7.00;;
10645;SDS011;5371;49.782;9.932;2023-04-07T00:59:18;9.70;;;7.27;;
10645;SDS011;5371;49.782;9.932;2023-04-07T01:01:47;10.87;;;7.33;;
10645;SDS011;5371;49.782;9.932;2023-04-07T01:04:21;10.50;;;7.00;;
10645;SDS011;5371;49.782;9.932;2023-04-07T01:06:55;10.97;;;8.20;;
10645;SDS011;5371;49.782;9.932;2023-04-07T01:09:34;10.07;;;7.60;;
10645;SDS011;5371;49.782;9.932;2023-04-07T01:12:04;10.07;;;7.53;;
10645;SDS011;5371;49.782;9.932;2023-04-07T01:14:34;9.50;;;7.33;;
10645;SDS011;5371;49.782;9.932;2023-04-07T01:17:22;8.73;;;7.13;;
10645;SDS011;5371;49.782;9.932;2023-04-07T01:19:52;9.87;;;7.80;;
10645;SDS011;5371;49.782;9.932;2023-04-07T01:22:25;10.33;;;7.70;;
10645;SDS011;5371;49.782;9.932;2023-04-07T01:25:02;9.37;;;7.47;;
10645;SDS011;5371;49.782;9.932;2023-04-07T01:27:37;10.83;;;7.83;;
10645;SDS011;5371;49.782;9.932;2023-04-07T01:30:10;11.13;;;7.63;;
10645;SDS011;5371;49.782;9.932;2023-04-07T01:32:38;9.73;;;7.43;;
10645;SDS011;5371;49.782;9.932;2023-04-07T01:35:07;11.37;;;8.13;;
10645;SDS011;5371;49.782;9.932;2023-04-07T01:37:36;13.50;;;8.37;;
10645;SDS011;5371;49.782;9.932;2023-04-07T01:40:05;10.10;;;8.37;;
10645;SDS011;5371;49.782;9.932;2023-04-07T01:42:33;13.10;;;8.50;;
10645;SDS011;5371;49.782;9.932;2023-04-07T01:45:02;13.40;;;8.57;;
10645;SDS011;5371;49.782;9.932;2023-04-07T01:47:32;12.03;;;8.70;;
10645;SDS011;5371;49.782;9.932;2023-04-07T01:50:00;11.07;;;8.73;;
10645;SDS011;5371;49.782;9.932;2023-04-07T01:52:28;11.23;;;8.60;;
10645;SDS011;5371;49.782;9.932;2023-04-07T01:54:55;12.10;;;9.00;;
10645;SDS011;5371;49.782;9.932;2023-04-07T01:57:23;11.90;;;9.47;;
10645;SDS011;5371;49.782;9.932;2023-04-07T01:59:55;12.83;;;9.57;;
10645;SDS011;5371;49.782;9.932;2023-04-07T02:02:24;13.30;;;9.53;;
10645;SDS011;5371;49.782;9.932;2023-04-07T02:04:53;13.17;;;9.37;;
10645;SDS011;5371;49.782;9.932;2023-04-07T02:07:23;12.93;;;10.07;;
10645;SDS011;5371;49.782;9.932;2023-04-07T02:09:55;12.43;;;9.37;;
10645;SDS011;5371;49.782;9.932;2023-04-07T02:12:25;14.53;;;10.80;;
10645;SDS011;5371;49.782;9.932;2023-04-07T02:15:01;15.40;;;10.93;;
10645;SDS011;5371;49.782;9.932;2023-04-07T02:17:29;14.47;;;10.40;;
10645;SDS011;5371;49.782;9.932;2023-04-07T02:20:00;14.80;;;10.20;;
10645;SDS011;5371;49.782;9.932;2023-04-07T02:22:28;14.00;;;10.97;;
10645;SDS011;5371;49.782;9.932;2023-04-07T02:24:55;15.77;;;11.47;;
10645;SDS011;5371;49.782;9.932;2023-04-07T02:27:25;16.23;;;11.97;;
10645;SDS011;5371;49.782;9.932;2023-04-07T02:29:52;19.40;;;11.67;;
10645;SDS011;5371;49.782;9.932;2023-04-07T02:32:21;17.17;;;12.53;;
10645;SDS011;5371;49.782;9.932;2023-04-07T02:34:49;17.83;;;12.20;;
10645;SDS011;5371;49.782;9.932;2023-04-07T02:37:18;15.27;;;11.50;;
10645;SDS011;5371;49.782;9.932;2023-04-07T02:39:45;17.27;;;12.40;;
10645;SDS011;5371;49.782;9.932;2023-04-07T02:42:12;16.50;;;11.63;;
10645;SDS011;5371;49.782;9.932;2023-04-07T02:44:38;16.80;;;11.77;;
10645;SDS011;5371;49.782;9.932;2023-04-07T02:47:07;17.10;;;12.43;;
10645;SDS011;5371;49.782;9.932;2023-04-07T02:49:34;15.87;;;11.40;;
10645;SDS011;5371;49.782;9.932;2023-04-07T02:52:01;15.57;;;10.53;;
10645;SDS011;5371;49.782;9.932;2023-04-07T02:54:29;15.57;;;11.57;;
10645;SDS011;5371;49.782;9.932;2023-04-07T02:56:56;16.60;;;11.00;;
10645;SDS011;5371;49.782;9.932;2023-04-07T02:59:24;13.80;;;11.27;;
10645;SDS011;5371;49.782;9.932;2023-04-07T03:01:51;16.10;;;10.87;;
10645;SDS011;5371;49.782;9.932;2023-04-07T03:04:18;15.37;;;11.40;;
10645;SDS011;5371;49.782;9.932;2023-04-07T03:06:45;16.43;;;11.97;;
10645;SDS011;5371;49.782;9.932;2023-04-07T03:09:14;15.67;;;11.77;;
10645;SDS011;5371;49.782;9.932;2023-04-07T03:11:42;14.30;;;11.87;;
10645;SDS011;5371;49.782;9.932;2023-04-07T03:14:09;16.60;;;11.90;;
10645;SDS011;5371;49.782;9.932;2023-04-07T03:16:44;15.13;;;11.40;;
10645;SDS011;5371;49.782;9.932;2023-04-07T03:19:12;14.47;;;11.23;;
10645;SDS011;5371;49.782;9.932;2023-04-07T03:21:43;16.30;;;11.80;;
10645;SDS011;5371;49.782;9.932;2023-04-07T03:24:10;16.37;;;11.60;;
10645;SDS011;5371;49.782;9.932;2023-04-07T03:26:37;17.57;;;12.03;;
10645;SDS011;5371;49.782;9.932;2023-04-07T03:29:11;17.00;;;11.83;;
10645;SDS011;5371;49.782;9.932;2023-04-07T03:31:40;17.37;;;12.37;;
10645;SDS011;5371;49.782;9.932;2023-04-07T03:34:07;18.80;;;12.40;;
10645;SDS011;5371;49.782;9.932;2023-04-07T03:36:35;17.53;;;12.27;;
10645;SDS011;5371;49.782;9.932;2023-04-07T03:39:04;17.97;;;12.90;;
10645;SDS011;5371;49.782;9.932;2023-04-07T03:41:32;17.10;;;12.50;;
10645;SDS011;5371;49.782;9.932;2023-04-07T03:43:58;15.90;;;12.40;;
10645;SDS011;5371;49.782;9.932;2023-04-07T03:46:27;17.37;;;13.17;;
10645;SDS011;5371;49.782;9.932;2023-04-07T03:48:54;17.57;;;12.40;;
10645;SDS011;5371;49.782;9.932;2023-04-07T03:51:21;17.23;;;12.80;;
10645;SDS011;5371;49.782;9.932;2023-04-07T03:53:53;17.40;;;12.90;;
10645;SDS011;5371;49.782;9.932;2023-04-07T03:56:29;18.00;;;12.93;;
10645;SDS011;5371;49.782;9.932;2023-04-07T03:58:57;20.40;;;13.43;;
10645;SDS011;5371;49.782;9.932;2023-04-07T04:01:29;17.90;;;13.43;;
10645;SDS011;5371;49.782;9.932;2023-04-07T04:04:03;18.37;;;13.70;;
10645;SDS011;5371;49.782;9.932;2023-04-07T04:06:30;18.80;;;13.77;;
10645;SDS011;5371;49.782;9.932;2023-04-07T04:09:06;19.70;;;13.27;;
10645;SDS011;5371;49.782;9.932;2023-04-07T04:11:35;18.63;;;13.83;;
10645;SDS011;5371;49.782;9.932;2023-04-07T04:14:04;17.67;;;12.83;;
10645;SDS011;5371;49.782;9.932;2023-04-07T04:16:34;21.07;;;14.07;;
10645;SDS011;5371;49.782;9.932;2023-04-07T04:19:07;20.17;;;13.93;;
10645;SDS011;5371;49.782;9.932;2023-04-07T04:21:34;17.73;;;13.97;;
10645;SDS011;5371;49.782;9.932;2023-04-07T04:24:01;21.27;;;13.53;;
10645;SDS011;5371;49.782;9.932;2023-04-07T04:26:29;17.47;;;13.40;;
10645;SDS011;5371;49.782;9.932;2023-04-07T04:29:02;18.47;;;13.00;;
10645;SDS011;5371;49.782;9.932;2023-04-07T04:31:29;18.40;;;13.57;;
10645;SDS011;5371;49.782;9.932;2023-04-07T04:33:58;20.83;;;14.03;;
10645;SDS011;5371;49.782;9.932;2023-04-07T04:36:25;20.03;;;13.20;;
10645;SDS011;5371;49.782;9.932;2023-04-07T04:38:57;20.13;;;13.60;;
10645;SDS011;5371;49.782;9.932;2023-04-07T04:41:24;19.87;;;14.07;;
10645;SDS011;5371;49.782;9.932;2023-04-07T04:43:51;21.67;;;14.70;;
10645;SDS011;5371;49.782;9.932;2023-04-07T04:46:22;21.80;;;14.60;;
10645;SDS011;5371;49.782;9.932;2023-04-07T04:48:50;22.20;;;14.63;;
10645;SDS011;5371;49.782;9.932;2023-04-07T04:51:20;23.70;;;14.73;;
10645;SDS011;5371;49.782;9.932;2023-04-07T04:53:53;20.63;;;14.07;;
10645;SDS011;5371;49.782;9.932;2023-04-07T04:56:22;20.67;;;14.60;;
10645;SDS011;5371;49.782;9.932;2023-04-07T04:58:50;23.47;;;14.90;;
10645;SDS011;5371;49.782;9.932;2023-04-07T05:01:40;19.53;;;14.67;;
10645;SDS011;5371;49.782;9.932;2023-04-07T05:04:10;20.27;;;14.07;;
10645;SDS011;5371;49.782;9.932;2023-04-07T05:06:44;20.67;;;14.97;;
10645;SDS011;5371;49.782;9.932;2023-04-07T05:09:14;24.17;;;15.70;;
10645;SDS011;5371;49.782;9.932;2023-04-07T05:11:44;22.13;;;15.87;;
10645;SDS011;5371;49.782;9.932;2023-04-07T05:14:11;22.30;;;16.23;;
10645;SDS011;5371;49.782;9.932;2023-04-07T05:16:42;24.03;;;15.67;;
10645;SDS011;5371;49.782;9.932;2023-04-07T05:19:14;21.63;;;15.87;;
10645;SDS011;5371;49.782;9.932;2023-04-07T05:21:42;21.83;;;15.80;;
10645;SDS011;5371;49.782;9.932;2023-04-07T05:24:11;21.70;;;15.63;;
10645;SDS011;5371;49.782;9.932;2023-04-07T05:26:38;22.13;;;15.27;;
10645;SDS011;5371;49.782;9.932;2023-04-07T05:29:05;23.10;;;15.20;;
10645;SDS011;5371;49.782;9.932;2023-04-07T05:31:32;18.83;;;14.33;;
10645;SDS011;5371;49.782;9.932;2023-04-07T05:34:03;17.87;;;13.23;;
10645;SDS011;5371;49.782;9.932;2023-04-07T05:36:36;17.47;;;13.60;;
10645;SDS011;5371;49.782;9.932;2023-04-07T05:39:03;18.77;;;13.17;;
10645;SDS011;5371;49.782;9.932;2023-04-07T05:41:32;20.17;;;14.40;;
10645;SDS011;5371;49.782;9.932;2023-04-07T05:44:00;18.97;;;13.87;;
10645;SDS011;5371;49.782;9.932;2023-04-07T05:46:30;18.67;;;13.90;;
10645;SDS011;5371;49.782;9.932;2023-04-07T05:48:58;22.07;;;14.93;;
10645;SDS011;5371;49.782;9.932;2023-04-07T05:51:26;20.87;;;14.73;;
10645;SDS011;5371;49.782;9.932;2023-04-07T05:53:54;19.17;;;14.13;;
10645;SDS011;5371;49.782;9.932;2023-04-07T05:56:23;18.67;;;14.50;;
10645;SDS011;5371;49.782;9.932;2023-04-07T05:58:51;19.90;;;13.80;;
10645;SDS011;5371;49.782;9.932;2023-04-07T06:01:19;18.70;;;13.90;;
10645;SDS011;5371;49.782;9.932;2023-04-07T06:03:46;18.13;;;13.23;;
10645;SDS011;5371;49.782;9.932;2023-04-07T06:06:24;19.47;;;13.53;;
10645;SDS011;5371;49.782;9.932;2023-04-07T06:08:52;19.83;;;13.70;;
10645;SDS011;5371;49.782;9.932;2023-04-07T06:11:21;19.57;;;13.60;;
10645;SDS011;5371;49.782;9.932;2023-04-07T06:13:48;22.87;;;14.10;;
10645;SDS011;5371;49.782;9.932;2023-04-07T06:16:16;18.50;;;13.77;;
10645;SDS011;5371;49.782;9.932;2023-04-07T06:18:43;20.67;;;14.27;;
10645;SDS011;5371;49.782;9.932;2023-04-07T06:21:10;18.73;;;14.10;;
10645;SDS011;5371;49.782;9.932;2023-04-07T06:23:37;20.43;;;14.53;;
10645;SDS011;5371;49.782;9.932;2023-04-07T06:26:06;21.60;;;14.30;;
10645;SDS011;5371;49.782;9.932;2023-04-07T06:28:35;19.30;;;14.30;;
10645;SDS011;5371;49.782;9.932;2023-04-07T06:31:02;18.87;;;14.10;;
10645;SDS011;5371;49.782;9.932;2023-04-07T06:33:31;18.27;;;13.87;;
10645;SDS011;5371;49.782;9.932;2023-04-07T06:35:58;17.53;;;13.70;;
10645;SDS011;5371;49.782;9.932;2023-04-07T06:38:25;20.60;;;13.90;;
10645;SDS011;5371;49.782;9.932;2023-04-07T06:40:52;19.83;;;13.63;;
10645;SDS011;5371;49.782;9.932;2023-04-07T06:43:19;21.73;;;14.20;;
10645;SDS011;5371;49.782;9.932;2023-04-07T06:45:56;20.03;;;14.30;;
10645;SDS011;5371;49.782;9.932;2023-04-07T06:48:23;18.43;;;13.80;;
10645;SDS011;5371;49.782;9.932;2023-04-07T06:50:51;22.57;;;15.23;;
10645;SDS011;5371;49.782;9.932;2023-04-07T06:53:18;20.20;;;14.07;;
10645;SDS011;5371;49.782;9.932;2023-04-07T06:55:44;22.70;;;14.67;;
10645;SDS011;5371;49.782;9.932;2023-04-07T06:58:11;21.27;;;14.40;;
10645;SDS011;5371;49.782;9.932;2023-04-07T07:00:38;19.83;;;13.63;;
10645;SDS011;5371;49.782;9.932;2023-04-07T07:03:05;18.47;;;13.77;;
10645;SDS011;5371;49.782;9.932;2023-04-07T07:05:32;18.90;;;13.83;;
10645;SDS011;5371;49.782;9.932;2023-04-07T07:08:00;20.20;;;14.00;;
10645;SDS011;5371;49.782;9.932;2023-04-07T07:10:27;18.33;;;14.00;;
10645;SDS011;5371;49.782;9.932;2023-04-07T07:12:57;19.87;;;14.37;;
10645;SDS011;5371;49.782;9.932;2023-04-07T07:15:24;20.40;;;14.70;;
10645;SDS011;5371;49.782;9.932;2023-04-07T07:17:51;21.10;;;14.67;;
10645;SDS011;5371;49.782;9.932;2023-04-07T07:20:18;20.33;;;14.43;;
10645;SDS011;5371;49.782;9.932;2023-04-07T07:22:47;20.77;;;14.80;;
10645;SDS011;5371;49.782;9.932;2023-04-07T07:25:16;18.53;;;14.03;;
10645;SDS011;5371;49.782;9.932;2023-04-07T07:27:43;19.73;;;14.90;;
10645;SDS011;5371;49.782;9.932;2023-04-07T07:30:10;21.13;;;15.43;;
10645;SDS011;5371;49.782;9.932;2023-04-07T07:32:38;22.03;;;16.00;;
10645;SDS011;5371;49.782;9.932;2023-04-07T07:35:05;21.47;;;15.13;;
10645;SDS011;5371;49.782;9.932;2023-04-07T07:37:32;20.60;;;15.10;;
10645;SDS011;5371;49.782;9.932;2023-04-07T07:39:59;19.80;;;14.90;;
10645;SDS011;5371;49.782;9.932;2023-04-07T07:42:27;19.03;;;14.90;;
10645;SDS011;5371;49.782;9.932;2023-04-07T07:44:55;19.07;;;15.23;;
10645;SDS011;5371;49.782;9.932;2023-04-07T07:47:22;21.23;;;14.83;;
10645;SDS011;5371;49.782;9.932;2023-04-07T07:49:49;20.87;;;15.27;;
10645;SDS011;5371;49.782;9.932;2023-04-07T07:52:16;21.10;;;15.37;;
10645;SDS011;5371;49.782;9.932;2023-04-07T07:54:43;19.73;;;14.90;;
10645;SDS011;5371;49.782;9.932;2023-04-07T07:57:10;18.63;;;14.90;;
10645;SDS011;5371;49.782;9.932;2023-04-07T07:59:38;20.03;;;15.33;;
10645;SDS011;5371;49.782;9.932;2023-04-07T08:02:05;23.57;;;15.70;;
10645;SDS011;5371;49.782;9.932;2023-04-07T08:04:35;20.63;;;14.60;;
10645;SDS011;5371;49.782;9.932;2023-04-07T08:07:02;22.00;;;16.00;;
10645;SDS011;5371;49.782;9.932;2023-04-07T08:09:29;21.70;;;15.60;;
10645;SDS011;5371;49.782;9.932;2023-04-07T08:11:57;19.83;;;15.07;;
10645;SDS011;5371;49.782;9.932;2023-04-07T08:14:24;18.67;;;14.30;;
10645;SDS011;5371;49.782;9.932;2023-04-07T08:16:52;20.40;;;15.27;;
10645;SDS011;5371;49.782;9.932;2023-04-07T08:19:19;20.30;;;15.20;;
10645;SDS011;5371;49.782;9.932;2023-04-07T08:21:46;22.47;;;15.27;;
10645;SDS011;5371;49.782;9.932;2023-04-07T08:24:13;20.17;;;15.30;;
10645;SDS011;5371;49.782;9.932;2023-04-07T08:26:40;18.67;;;15.00;;
10645;SDS011;5371;49.782;9.932;2023-04-07T08:29:07;19.63;;;15.03;;
10645;SDS011;5371;49.782;9.932;2023-04-07T08:31:34;19.10;;;15.37;;
10645;SDS011;5371;49.782;9.932;2023-04-07T08:34:02;19.13;;;15.33;;
10645;SDS011;5371;49.782;9.932;2023-04-07T08:36:29;19.30;;;14.07;;
10645;SDS011;5371;49.782;9.932;2023-04-07T08:38:56;18.60;;;13.90;;
10645;SDS011;5371;49.782;9.932;2023-04-07T08:41:26;17.53;;;14.03;;
10645;SDS011;5371;49.782;9.932;2023-04-07T08:43:56;17.70;;;13.47;;
10645;SDS011;5371;49.782;9.932;2023-04-07T08:46:24;19.47;;;14.83;;
10645;SDS011;5371;49.782;9.932;2023-04-07T08:48:51;20.70;;;14.80;;
10645;SDS011;5371;49.782;9.932;2023-04-07T08:51:21;18.50;;;14.23;;
10645;SDS011;5371;49.782;9.932;2023-04-07T08:53:53;21.67;;;14.93;;
10645;SDS011;5371;49.782;9.932;2023-04-07T08:56:20;19.70;;;14.20;;
10645;SDS011;5371;49.782;9.932;2023-04-07T08:58:47;18.83;;;14.67;;
10645;SDS011;5371;49.782;9.932;2023-04-07T09:01:14;19.93;;;15.53;;
10645;SDS011;5371;49.782;9.932;2023-04-07T09:03:42;17.10;;;14.07;;
10645;SDS011;5371;49.782;9.932;2023-04-07T09:06:10;19.27;;;13.70;;
10645;SDS011;5371;49.782;9.932;2023-04-07T09:08:38;17.20;;;13.87;;
10645;SDS011;5371;49.782;9.932;2023-04-07T09:11:05;18.03;;;14.23;;
10645;SDS011;5371;49.782;9.932;2023-04-07T09:13:32;16.83;;;13.53;;
10645;SDS011;5371;49.782;9.932;2023-04-07T09:16:00;18.10;;;13.83;;
10645;SDS011;5371;49.782;9.932;2023-04-07T09:18:27;17.47;;;14.17;;
10645;SDS011;5371;49.782;9.932;2023-04-07T09:20:58;17.00;;;13.60;;
10645;SDS011;5371;49.782;9.932;2023-04-07T09:23:29;16.50;;;13.87;;
10645;SDS011;5371;49.782;9.932;2023-04-07T09:25:58;18.50;;;14.30;;
10645;SDS011;5371;49.782;9.932;2023-04-07T09:28:37;16.70;;;13.40;;
10645;SDS011;5371;49.782;9.932;2023-04-07T09:31:05;15.53;;;13.17;;
10645;SDS011;5371;49.782;9.932;2023-04-07T09:33:32;16.90;;;13.67;;
10645;SDS011;5371;49.782;9.932;2023-04-07T09:35:59;17.15;;;13.13;;
10645;SDS011;5371;49.782;9.932;2023-04-07T09:38:31;16.60;;;12.98;;
10645;SDS011;5371;49.782;9.932;2023-04-07T09:41:05;16.17;;;13.10;;
10645;SDS011;5371;49.782;9.932;2023-04-07T09:43:34;14.20;;;11.75;;
10645;SDS011;5371;49.782;9.932;2023-04-07T09:46:09;13.48;;;11.00;;
10645;SDS011;5371;49.782;9.932;2023-04-07T09:48:38;14.55;;;11.40;;
10645;SDS011;5371;49.782;9.932;2023-04-07T09:51:14;18.35;;;11.75;;
10645;SDS011;5371;49.782;9.932;2023-04-07T09:53:44;12.35;;;10.85;;
10645;SDS011;5371;49.782;9.932;2023-04-07T09:56:14;13.10;;;10.80;;
10645;SDS011;5371;49.782;9.932;2023-04-07T09:58:42;13.38;;;10.68;;
10645;SDS011;5371;49.782;9.932;2023-04-07T10:01:12;12.40;;;10.95;;
10645;SDS011;5371;49.782;9.932;2023-04-07T10:03:40;11.52;;;10.32;;
10645;SDS011;5371;49.782;9.932;2023-04-07T10:06:07;11.55;;;10.05;;
10645;SDS011;5371;49.782;9.932;2023-04-07T10:08:35;11.10;;;9.90;;
10645;SDS011;5371;49.782;9.932;2023-04-07T10:11:04;14.85;;;10.70;;
10645;SDS011;5371;49.782;9.932;2023-04-07T10:13:33;12.43;;;10.30;;
10645;SDS011;5371;49.782;9.932;2023-04-07T10:16:02;12.23;;;10.45;;
10645;SDS011;5371;49.782;9.932;2023-04-07T10:18:30;11.60;;;10.23;;
10645;SDS011;5371;49.782;9.932;2023-04-07T10:20:59;11.57;;;9.90;;
10645;SDS011;5371;49.782;9.932;2023-04-07T10:23:30;11.27;;;9.88;;
10645;SDS011;5371;49.782;9.932;2023-04-07T10:26:02;14.00;;;10.48;;
10645;SDS011;5371;49.782;9.932;2023-04-07T10:28:31;13.38;;;11.13;;
10645;SDS011;5371;49.782;9.932;2023-04-07T10:31:00;12.30;;;10.02;;
10645;SDS011;5371;49.782;9.932;2023-04-07T10:33:43;12.45;;;10.23;;
10645;SDS011;5371;49.782;9.932;2023-04-07T10:36:10;14.77;;;10.48;;
10645;SDS011;5371;49.782;9.932;2023-04-07T10:38:37;12.87;;;10.50;;
10645;SDS011;5371;49.782;9.932;2023-04-07T10:44:02;11.50;;;9.88;;
10645;SDS011;5371;49.782;9.932;2023-04-07T10:49:31;12.15;;;10.38;;
10645;SDS011;5371;49.782;9.932;2023-04-07T10:54:48;12.27;;;10.20;;
10645;SDS011;5371;49.782;9.932;2023-04-07T10:58:12;13.55;;;10.57;;
10645;SDS011;5371;49.782;9.932;2023-04-07T11:00:42;12.20;;;10.23;;
10645;SDS011;5371;49.782;9.932;2023-04-07T11:03:51;11.20;;;9.73;;
10645;SDS011;5371;49.782;9.932;2023-04-07T11:06:19;11.05;;;9.85;;
10645;SDS011;5371;49.782;9.932;2023-04-07T11:08:46;11.27;;;10.07;;
10645;SDS011;5371;49.782;9.932;2023-04-07T11:11:15;10.70;;;9.30;;
10645;SDS011;5371;49.782;9.932;2023-04-07T11:13:45;11.43;;;10.00;;
10645;SDS011;5371;49.782;9.932;2023-04-07T11:16:15;11.77;;;9.95;;
10645;SDS011;5371;49.782;9.932;2023-04-07T11:18:43;11.77;;;10.23;;
10645;SDS011;5371;49.782;9.932;2023-04-07T11:21:10;12.65;;;9.60;;
10645;SDS011;5371;49.782;9.932;2023-04-07T11:23:38;11.95;;;9.60;;
10645;SDS011;5371;49.782;9.932;2023-04-07T11:26:05;12.13;;;9.55;;
10645;SDS011;5371;49.782;9.932;2023-04-07T11:28:32;11.07;;;9.35;;
10645;SDS011;5371;49.782;9.932;2023-04-07T11:30:59;11.70;;;10.10;;
10645;SDS011;5371;49.782;9.932;2023-04-07T11:33:29;11.05;;;9.25;;
10645;SDS011;5371;49.782;9.932;2023-04-07T11:36:00;10.57;;;9.30;;
10645;SDS011;5371;49.782;9.932;2023-04-07T11:38:27;12.70;;;9.65;;
10645;SDS011;5371;49.782;9.932;2023-04-07T11:40:55;10.85;;;9.27;;
10645;SDS011;5371;49.782;9.932;2023-04-07T11:43:23;10.55;;;9.13;;
10645;SDS011;5371;49.782;9.932;2023-04-07T11:48:35;10.82;;;9.57;;
10645;SDS011;5371;49.782;9.932;2023-04-07T11:51:05;12.25;;;9.60;;
10645;SDS011;5371;49.782;9.932;2023-04-07T11:53:33;13.23;;;9.40;;
10645;SDS011;5371;49.782;9.932;2023-04-07T11:56:03;11.18;;;9.50;;
10645;SDS011;5371;49.782;9.932;2023-04-07T11:58:31;11.32;;;9.73;;
10645;SDS011;5371;49.782;9.932;2023-04-07T12:00:59;11.32;;;9.63;;
10645;SDS011;5371;49.782;9.932;2023-04-07T12:03:30;11.75;;;9.77;;
10645;SDS011;5371;49.782;9.932;2023-04-07T12:06:00;12.45;;;10.02;;
10645;SDS011;5371;49.782;9.932;2023-04-07T12:08:37;12.32;;;9.48;;
10645;SDS011;5371;49.782;9.932;2023-04-07T12:11:05;9.93;;;8.35;;
10645;SDS011;5371;49.782;9.932;2023-04-07T12:13:33;12.55;;;9.65;;
10645;SDS011;5371;49.782;9.932;2023-04-07T12:16:00;11.15;;;9.25;;
10645;SDS011;5371;49.782;9.932;2023-04-07T12:18:28;10.85;;;9.07;;
10645;SDS011;5371;49.782;9.932;2023-04-07T12:20:55;10.35;;;8.77;;
10645;SDS011;5371;49.782;9.932;2023-04-07T12:23:24;10.05;;;8.85;;
10645;SDS011;5371;49.782;9.932;2023-04-07T12:25:52;10.63;;;9.25;;
10645;SDS011;5371;49.782;9.932;2023-04-07T12:28:19;10.48;;;8.95;;
10645;SDS011;5371;49.782;9.932;2023-04-07T12:30:45;14.05;;;9.32;;
10645;SDS011;5371;49.782;9.932;2023-04-07T12:33:13;10.75;;;8.93;;
10645;SDS011;5371;49.782;9.932;2023-04-07T12:35:40;11.88;;;9.68;;
10645;SDS011;5371;49.782;9.932;2023-04-07T12:38:07;12.57;;;9.32;;
10645;SDS011;5371;49.782;9.932;2023-04-07T12:40:35;11.20;;;8.65;;
10645;SDS011;5371;49.782;9.932;2023-04-07T12:43:03;14.15;;;7.95;;
10645;SDS011;5371;49.782;9.932;2023-04-07T12:45:30;8.98;;;7.72;;
10645;SDS011;5371;49.782;9.932;2023-04-07T12:47:57;9.68;;;7.65;;
10645;SDS011;5371;49.782;9.932;2023-04-07T12:50:24;9.38;;;7.65;;
10645;SDS011;5371;49.782;9.932;2023-04-07T12:52:51;11.13;;;8.32;;
10645;SDS011;5371;49.782;9.932;2023-04-07T12:55:19;9.65;;;7.88;;
10645;SDS011;5371;49.782;9.932;2023-04-07T12:57:48;8.80;;;7.65;;
10645;SDS011;5371;49.782;9.932;2023-04-07T13:00:15;10.93;;;8.45;;
10645;SDS011;5371;49.782;9.932;2023-04-07T13:02:42;8.23;;;7.35;;
10645;SDS011;5371;49.782;9.932;2023-04-07T13:05:09;9.20;;;7.45;;
10645;SDS011;5371;49.782;9.932;2023-04-07T13:07:37;11.73;;;7.57;;
10645;SDS011;5371;49.782;9.932;2023-04-07T13:10:04;9.02;;;6.90;;
10645;SDS011;5371;49.782;9.932;2023-04-07T13:12:33;8.70;;;7.05;;
10645;SDS011;5371;49.782;9.932;2023-04-07T13:15:02;10.20;;;6.88;;
10645;SDS011;5371;49.782;9.932;2023-04-07T13:17:29;10.20;;;6.72;;
10645;SDS011;5371;49.782;9.932;2023-04-07T13:19:56;8.40;;;6.32;;
10645;SDS011;5371;49.782;9.932;2023-04-07T13:22:24;7.85;;;6.95;;
10645;SDS011;5371;49.782;9.932;2023-04-07T13:24:51;8.02;;;6.20;;
10645;SDS011;5371;49.782;9.932;2023-04-07T13:27:18;8.45;;;6.00;;
10645;SDS011;5371;49.782;9.932;2023-04-07T13:29:45;7.50;;;5.97;;
10645;SDS011;5371;49.782;9.932;2023-04-07T13:32:14;6.78;;;5.28;;
10645;SDS011;5371;49.782;9.932;2023-04-07T13:34:41;8.88;;;5.18;;
10645;SDS011;5371;49.782;9.932;2023-04-07T13:37:09;6.50;;;5.10;;
10645;SDS011;5371;49.782;9.932;2023-04-07T13:39:36;6.07;;;5.05;;
10645;SDS011;5371;49.782;9.932;2023-04-07T13:42:03;5.97;;;5.20;;
10645;SDS011;5371;49.782;9.932;2023-04-07T13:44:32;6.82;;;4.90;;
10645;SDS011;5371;49.782;9.932;2023-04-07T13:47:01;5.85;;;4.65;;
10645;SDS011;5371;49.782;9.932;2023-04-07T13:49:30;7.07;;;5.25;;
10645;SDS011;5371;49.782;9.932;2023-04-07T13:51:56;7.90;;;5.93;;
10645;SDS011;5371;49.782;9.932;2023-04-07T13:54:23;7.20;;;5.43;;
10645;SDS011;5371;49.782;9.932;2023-04-07T13:56:50;7.97;;;5.63;;
10645;SDS011;5371;49.782;9.932;2023-04-07T13:59:17;7.00;;;5.20;;
10645;SDS011;5371;49.782;9.932;2023-04-07T14:01:44;7.28;;;5.07;;
10645;SDS011;5371;49.782;9.932;2023-04-07T14:07:17;6.38;;;5.30;;
10645;SDS011;5371;49.782;9.932;2023-04-07T14:09:44;8.68;;;6.15;;
10645;SDS011;5371;49.782;9.932;2023-04-07T14:12:12;9.02;;;6.25;;
10645;SDS011;5371;49.782;9.932;2023-04-07T14:14:39;7.25;;;5.95;;
10645;SDS011;5371;49.782;9.932;2023-04-07T14:17:06;6.60;;;5.13;;
10645;SDS011;5371;49.782;9.932;2023-04-07T14:19:33;8.68;;;5.78;;
10645;SDS011;5371;49.782;9.932;2023-04-07T14:22:00;8.75;;;5.78;;
10645;SDS011;5371;49.782;9.932;2023-04-07T14:24:29;8.23;;;6.15;;
10645;SDS011;5371;49.782;9.932;2023-04-07T14:26:56;7.22;;;6.03;;
10645;SDS011;5371;49.782;9.932;2023-04-07T14:29:26;8.18;;;5.63;;
10645;SDS011;5371;49.782;9.932;2023-04-07T14:31:53;7.35;;;5.43;;
10645;SDS011;5371;49.782;9.932;2023-04-07T14:34:19;8.02;;;5.97;;
10645;SDS011;5371;49.782;9.932;2023-04-07T14:36:53;7.97;;;5.53;;
10645;SDS011;5371;49.782;9.932;2023-04-07T14:39:21;7.25;;;5.40;;
10645;SDS011;5371;49.782;9.932;2023-04-07T14:41:49;7.93;;;5.47;;
10645;SDS011;5371;49.782;9.932;2023-04-07T14:44:16;9.25;;;5.38;;
10645;SDS011;5371;49.782;9.932;2023-04-07T14:46:43;9.32;;;5.95;;
10645;SDS011;5371;49.782;9.932;2023-04-07T14:49:11;8.65;;;5.57;;
10645;SDS011;5371;49.782;9.932;2023-04-07T14:51:39;7.07;;;5.80;;
10645;SDS011;5371;49.782;9.932;2023-04-07T14:54:06;11.40;;;6.35;;
10645;SDS011;5371;49.782;9.932;2023-04-07T14:56:33;8.13;;;5.93;;
10645;SDS011;5371;49.782;9.932;2023-04-07T14:59:04;8.20;;;6.55;;
10645;SDS011;5371;49.782;9.932;2023-04-07T15:01:31;8.68;;;6.40;;
10645;SDS011;5371;49.782;9.932;2023-04-07T15:03:58;7.78;;;6.38;;
10645;SDS011;5371;49.782;9.932;2023-04-07T15:06:25;7.20;;;6.00;;